sensor_id;sensor_type;location;lat;lon;timestamp;temperature;humidity
15564;DHT22;7883;52.554;13.364;2023-06-14T21:09:07;20.00;99.90
15564;DHT22;7883;52.554;13.364;2023-06-14T21:11:34;20.00;99.90
15564;DHT22;7883;52.554;13.364;2023-06-14T21:14:00;20.10;99.90
15564;DHT22;7883;52.554;13.364;2023-06-14T21:16:27;20.10;99.90
15564;DHT22;7883;52.554;13.364;2023-06-14T21:18:54;20.10;99.90
15564;DHT22;7883;52.554;13.364;2023-06-14T21:21:21;20.10;99.90
15564;DHT22;7883;52.554;13.364;2023-06-14T21:23:48;20.10;99.90
15564;DHT22;7883;52.554;13.364;2023-06-14T21:26:16;20.10;99.90
15564;DHT22;7883;52.554;13.364;2023-06-14T21:28:43;20.20;99.90
15564;DHT22;7883;52.554;13.364;2023-06-14T21:31:14;20.20;99.90
15564;DHT22;7883;52.554;13.364;2023-06-14T21:33:44;20.20;99.90
15564;DHT22;7883;52.554;13.364;2023-06-14T21:36:11;20.20;99.90
15564;DHT22;7883;52.554;13.364;2023-06-14T21:38:37;20.20;99.90
15564;DHT22;7883;52.554;13.364;2023-06-14T21:41:04;20.10;99.90
15564;DHT22;7883;52.554;13.364;2023-06-14T21:43:33;20.20;99.90
15564;DHT22;7883;52.554;13.364;2023-06-14T21:45:59;20.00;99.90
15564;DHT22;7883;52.554;13.364;2023-06-14T21:48:26;20.00;99.90
15564;DHT22;7883;52.554;13.364;2023-06-14T21:50:53;19.90;99.90
15564;DHT22;7883;52.554;13.364;2023-06-14T21:53:21;19.90;99.90
15564;DHT22;7883;52.554;13.364;2023-06-14T21:55:48;19.90;99.90
15564;DHT22;7883;52.554;13.364;2023-06-14T21:58:15;19.90;99.90
15564;DHT22;7883;52.554;13.364;2023-06-14T22:00:43;19.90;99.90
15564;DHT22;7883;52.554;13.364;2023-06-14T22:03:11;19.90;99.90
15564;DHT22;7883;52.554;13.364;2023-06-14T22:05:37;19.70;99.90
15564;DHT22;7883;52.554;13.364;2023-06-14T22:08:04;19.80;99.90
15564;DHT22;7883;52.554;13.364;2023-06-14T22:10:31;19.70;99.90
15564;DHT22;7883;52.554;13.364;2023-06-14T22:12:58;19.70;99.90
15564;DHT22;7883;52.554;13.364;2023-06-14T22:15:26;19.80;99.90
15564;DHT22;7883;52.554;13.364;2023-06-14T22:17:54;19.70;99.90
15564;DHT22;7883;52.554;13.364;2023-06-14T22:20:22;19.70;99.90
15564;DHT22;7883;52.554;13.364;2023-06-14T22:22:54;19.70;99.90
15564;DHT22;7883;52.554;13.364;2023-06-14T22:25:23;19.70;99.90
15564;DHT22;7883;52.554;13.364;2023-06-14T22:27:49;19.60;99.90
15564;DHT22;7883;52.554;13.364;2023-06-14T22:30:18;19.70;99.90
15564;DHT22;7883;52.554;13.364;2023-06-14T22:32:46;19.70;99.90
15564;DHT22;7883;52.554;13.364;2023-06-14T22:35:15;19.60;99.90
15564;DHT22;7883;52.554;13.364;2023-06-14T22:37:42;19.50;99.90
15564;DHT22;7883;52.554;13.364;2023-06-14T22:40:10;19.50;99.90
15564;DHT22;7883;52.554;13.364;2023-06-14T22:42:38;19.40;99.90
15564;DHT22;7883;52.554;13.364;2023-06-14T22:45:07;19.40;99.90
15564;DHT22;7883;52.554;13.364;2023-06-14T22:47:37;19.30;99.90
15564;DHT22;7883;52.554;13.364;2023-06-14T22:50:04;19.30;99.90
15564;DHT22;7883;52.554;13.364;2023-06-14T22:52:33;19.30;99.90
15564;DHT22;7883;52.554;13.364;2023-06-14T22:55:06;19.30;99.90
15564;DHT22;7883;52.554;13.364;2023-06-14T22:57:33;19.30;99.90
15564;DHT22;7883;52.554;13.364;2023-06-14T23:00:00;19.30;99.90
15564;DHT22;7883;52.554;13.364;2023-06-14T23:02:31;19.20;99.90
15564;DHT22;7883;52.554;13.364;2023-06-14T23:04:58;19.20;99.90
15564;DHT22;7883;52.554;13.364;2023-06-14T23:07:25;19.10;99.90
15564;DHT22;7883;52.554;13.364;2023-06-14T23:09:54;19.10;99.90
15564;DHT22;7883;52.554;13.364;2023-06-14T23:12:22;19.10;99.90
15564;DHT22;7883;52.554;13.364;2023-06-14T23:14:50;19.00;99.90
15564;DHT22;7883;52.554;13.364;2023-06-14T23:17:17;19.00;99.90
15564;DHT22;7883;52.554;13.364;2023-06-14T23:19:44;18.90;99.90
15564;DHT22;7883;52.554;13.364;2023-06-14T23:22:10;19.00;99.90
15564;DHT22;7883;52.554;13.364;2023-06-14T23:24:39;18.80;99.90
15564;DHT22;7883;52.554;13.364;2023-06-14T23:27:08;18.80;99.90
15564;DHT22;7883;52.554;13.364;2023-06-14T23:29:35;18.70;99.90
15564;DHT22;7883;52.554;13.364;2023-06-14T23:32:03;18.70;99.90
15564;DHT22;7883;52.554;13.364;2023-06-14T23:34:30;18.70;99.90
15564;DHT22;7883;52.554;13.364;2023-06-14T23:36:59;18.60;99.90
15564;DHT22;7883;52.554;13.364;2023-06-14T23:39:27;18.50;99.90
15564;DHT22;7883;52.554;13.364;2023-06-14T23:41:53;18.50;99.90
15564;DHT22;7883;52.554;13.364;2023-06-14T23:44:22;18.50;99.90
15564;DHT22;7883;52.554;13.364;2023-06-14T23:46:50;18.50;99.90
15564;DHT22;7883;52.554;13.364;2023-06-14T23:49:22;18.30;99.90
15564;DHT22;7883;52.554;13.364;2023-06-14T23:51:49;18.40;99.90
15564;DHT22;7883;52.554;13.364;2023-06-14T23:54:17;18.50;99.90
15564;DHT22;7883;52.554;13.364;2023-06-14T23:56:46;18.40;99.90
15564;DHT22;7883;52.554;13.364;2023-06-14T23:59:19;18.40;99.90
